Latest Weather Observations for Christmas Creek

IDW60801

Issued at 11:35 am WST Friday 1 August 2014 (issued every 30 minutes, with the page automatically refreshed every 10 minutes)

About weather observations | Map of weather stations | Latest weather observations for WA | Other Formats
Station Details ID: 505049 Name: CHRISTMAS CREEK Lat: -22.36 Lon: 119.65 Height: 437.21 m
Data from the previous 72 hours. | See also: Recent months for locations in Western Australia
Date/Time
WST
Temp
°C
App
Temp
°C
Dew
Point
Rel
Hum
%
Delta-T
°C
Wind Press
QNH
hPa
Press
MSL
hPa
Rain
since 9 am
mm
Dir
 
Spd
km/h
Gust
km/h
Spd
kts
Gust
kts
01/11:30am 23.2 19.4 3.8 28 9.6 ESE 13 22 7 12 1021.6 - 0.0
01/11:00am 22.6 18.8 3.9 29 9.3 ESE 13 20 7 11 1022.0 1021.0 0.0
01/10:30am 21.7 18.0 4.2 31 8.7 ESE 13 24 7 13 1022.3 - 0.0
01/10:00am 20.7 16.2 4.2 33 8.1 SE 17 28 9 15 1022.6 1021.7 0.0
01/09:30am 19.8 15.3 4.4 36 7.6 ESE 17 24 9 13 1022.4 - 0.0
01/09:00am 18.5 13.7 4.6 40 6.8 ESE 19 24 10 13 1022.2 1021.3 0.0
01/08:30am 16.9 14.0 4.8 44 5.9 SE 9 15 5 8 1022.1 - 0.0
01/08:00am 15.2 11.9 4.6 49 5.1 SSE 11 17 6 9 1021.7 1020.7 0.0
01/07:30am 14.3 11.0 4.3 51 4.7 SE 11 15 6 8 1021.4 - 0.0
01/07:00am 13.4 10.4 4.1 53 4.3 SSE 9 13 5 7 1021.3 1020.7 0.0
01/06:30am 13.4 10.4 4.1 53 4.3 SSE 9 13 5 7 1021.0 - 0.0
01/06:00am 13.7 10.8 4.5 54 4.3 SSE 9 13 5 7 1020.6 1020.0 0.0
01/05:30am 14.8 12.2 4.3 49 5.0 ESE 7 11 4 6 1020.2 - 0.0
01/05:00am 15.4 12.0 4.1 47 5.3 SE 11 17 6 9 1020.1 1019.5 0.0
01/04:30am 15.4 12.2 5.3 51 4.9 SSE 11 19 6 10 1019.8 - 0.0
01/04:00am 16.1 13.7 5.1 48 5.3 SSE 7 22 4 12 1019.6 1019.0 0.0
01/03:30am 16.5 13.8 5.6 48 5.4 S 9 20 5 11 1019.4 - 0.0
01/03:00am 18.4 15.1 4.6 40 6.7 ENE 11 15 6 8 1019.2 1018.6 0.0
01/02:30am 17.7 14.6 5.6 45 6.0 SSW 11 19 6 10 1019.8 - 0.0
01/02:00am 19.4 16.8 4.0 36 7.5 E 7 11 4 6 1019.6 1019.0 0.0
01/01:30am 19.3 16.0 4.6 38 7.2 ENE 11 13 6 7 1019.7 - 0.0
01/01:00am 19.5 17.0 4.9 38 7.2 NE 7 9 4 5 1019.9 1019.3 0.0
01/12:30am 19.7 17.3 5.2 38 7.2 ENE 7 7 4 4 1020.1 - 0.0
01/12:00am 20.3 18.0 4.7 36 7.7 ENE 6 9 3 5 1020.2 1019.7 0.0
 
Date/Time
WST
Temp
°C
App
Temp
°C
Dew
Point
Rel
Hum
%
Delta-T
°C
Wind Press
QNH
hPa
Press
MSL
hPa
Rain
since 9 am
mm
Dir
 
Spd
km/h
Gust
km/h
Spd
kts
Gust
kts
31/11:30pm 20.7 18.2 4.7 35 8.0 ENE 7 11 4 6 1020.2 - 0.0
31/11:00pm 21.6 19.0 4.1 31 8.7 E 7 11 4 6 1020.4 1019.9 0.0
31/10:30pm 20.9 18.6 4.6 34 8.1 SE 6 7 3 4 1020.6 - 0.0
31/10:00pm 21.7 18.7 4.3 32 8.6 SE 9 13 5 7 1020.6 1020.0 0.0
31/09:30pm 21.8 19.3 4.6 32 8.6 ESE 7 11 4 6 1020.4 - 0.0
31/09:00pm 21.0 18.2 5.3 36 7.9 E 9 11 5 6 1020.2 1019.7 0.0
31/08:30pm 21.1 18.8 5.8 37 7.8 E 7 9 4 5 1020.2 - 0.0
31/08:00pm 21.8 20.3 7.0 38 7.7 SSE 4 6 2 3 1020.0 1019.4 0.0
31/07:30pm 22.2 20.1 5.9 34 8.4 S 6 9 3 5 1019.7 - 0.0
31/07:00pm 22.8 21.1 4.0 29 9.4 S 2 4 1 2 1019.4 1018.8 0.0
31/06:30pm 23.0 20.6 4.2 29 9.4 S 6 7 3 4 1019.1 - 0.0
31/06:00pm 24.2 21.5 3.8 26 10.2 S 7 9 4 5 1019.0 1018.4 0.0
31/05:30pm 26.2 22.9 2.6 21 11.7 ESE 9 13 5 7 1018.8 - 0.0
31/05:00pm 26.7 23.0 2.4 20 12.1 SE 11 15 6 8 1018.9 1018.3 0.0
31/04:30pm 27.1 24.4 2.5 20 12.3 ESE 6 15 3 8 1018.8 - 0.0
31/04:00pm 27.2 23.9 2.3 20 12.4 S 9 19 5 10 1018.8 1018.2 0.0
31/03:30pm 27.0 23.7 2.4 20 12.3 E 9 15 5 8 1018.6 - 0.0
31/03:00pm 27.0 23.7 2.6 20 12.2 SW 9 15 5 8 1018.8 1018.2 0.0
31/02:30pm 27.3 23.2 2.2 19 12.5 SSW 13 24 7 13 1019.0 - 0.0
31/02:00pm 26.8 24.0 1.9 20 12.3 SSE 6 13 3 7 1019.2 1018.6 0.0
31/01:30pm 26.8 23.9 2.5 20 12.1 SSE 7 17 4 9 1019.4 - 0.0
31/01:00pm 26.7 23.1 3.1 21 11.9 SE 11 20 6 11 1020.0 1019.4 0.0
31/12:30pm 26.1 22.1 2.9 22 11.6 SE 13 20 7 11 1020.6 - 0.0
31/12:00pm 25.5 21.2 3.3 23 11.1 SE 15 24 8 13 1021.1 1020.5 0.0
31/11:30am 24.7 20.4 3.0 24 10.8 SE 15 22 8 12 1021.4 - 0.0
31/11:00am 24.1 19.1 3.6 26 10.2 SSE 19 26 10 14 1021.8 1021.2 0.0
31/10:30am 22.9 18.0 4.0 29 9.4 SE 19 24 10 13 1022.1 - 0.0
31/10:00am 21.7 17.3 4.5 32 8.6 SE 17 26 9 14 1022.4 1021.9 0.0
31/09:30am 20.1 15.7 5.0 37 7.5 SSE 17 22 9 12 1022.5 - 0.0
31/09:00am 19.0 15.4 5.0 39 6.9 SSE 13 22 7 12 1022.4 1021.9 0.0
31/08:30am 17.6 14.5 5.6 45 6.0 SSE 11 17 6 9 1022.3 - 0.0
31/08:00am 16.1 13.8 5.6 49 5.1 SE 7 11 4 6 1022.0 1021.4 0.0
31/07:30am 14.5 12.2 5.7 55 4.3 ESE 7 28 4 15 1021.8 - 0.0
31/07:00am 13.3 11.2 5.6 59 3.7 E 6 11 3 6 1021.6 1021.0 0.0
31/06:30am 11.9 9.9 6.1 67 2.8 E 6 9 3 5 1021.3 - 0.0
31/06:00am 12.8 11.2 6.2 64 3.2 ESE 4 9 2 5 1020.9 1020.3 0.0
31/05:30am 11.8 10.4 7.4 74 2.2 S 4 9 2 5 1020.6 - 0.0
31/05:00am 11.9 9.6 7.6 75 2.1 SW 9 17 5 9 1020.0 1019.4 0.0
31/04:30am 12.1 10.5 7.9 75 2.1 N 6 7 3 4 1019.9 - 0.0
31/04:00am 12.2 11.3 7.9 75 2.2 SSE 2 6 1 3 1019.7 1019.1 0.0
31/03:30am 12.9 11.3 7.8 71 2.6 NNE 6 9 3 5 1019.5 - 0.0
31/03:00am 12.9 12.1 8.0 72 2.5 NNE 2 6 1 3 1019.6 1019.0 0.0
31/02:30am 13.2 12.4 8.3 72 2.5 WNW 2 4 1 2 1019.7 - 0.0
31/02:00am 13.9 13.2 8.5 70 2.8 WNW 2 4 1 2 1019.9 1019.3 0.0
31/01:30am 14.2 13.4 8.2 67 3.1 NW 2 4 1 2 1020.0 - 0.0
31/01:00am 14.4 13.1 7.7 64 3.4 WSW 4 7 2 4 1020.1 1019.5 0.0
31/12:30am 14.2 12.2 7.3 63 3.5 W 7 20 4 11 1020.2 - 0.0
31/12:00am 14.9 12.9 7.0 59 3.9 W 7 9 4 5 1020.1 1019.5 0.0
 
Date/Time
WST
Temp
°C
App
Temp
°C
Dew
Point
Rel
Hum
%
Delta-T
°C
Wind Press
QNH
hPa
Press
MSL
hPa
Rain
since 9 am
mm
Dir
 
Spd
km/h
Gust
km/h
Spd
kts
Gust
kts
30/11:30pm 16.4 14.9 6.9 53 4.8 ENE 4 6 2 3 1020.1 - 0.0
30/11:00pm 16.3 14.9 7.3 55 4.6 N 4 7 2 4 1020.1 1019.5 0.0
30/10:30pm 16.3 13.3 7.6 56 4.5 N 13 15 7 8 1020.0 - 0.0
30/10:00pm 18.0 14.7 6.3 46 5.9 N 13 13 7 7 1020.0 1019.4 0.0
30/09:30pm 17.2 15.9 7.6 53 4.9 N 4 6 2 3 1019.9 - 0.0
30/09:13pm 17.8 16.0 7.3 50 5.4 NE 6 9 3 5 1020.0 - 0.0
30/09:00pm 18.0 16.6 7.1 49 5.6 N 4 4 2 2 1020.1 1019.5 0.0
30/08:57pm 18.1 16.6 7.0 48 5.7 N 4 6 2 3 1020.1 - 0.0
30/08:35pm 18.7 16.8 6.8 46 6.1 NNE 6 7 3 4 1020.1 - 0.0
30/08:30pm 18.9 16.7 6.3 43 6.4 NNE 7 9 4 5 1020.0 - 0.0
30/08:00pm 19.4 18.3 6.8 44 6.5 NNE 2 9 1 5 1020.0 1019.4 0.0
30/07:30pm 20.6 19.0 6.3 39 7.3 E 4 6 2 3 1019.9 - 0.0
30/07:19pm 20.4 19.3 7.0 41 7.0 ENE 2 4 1 2 1019.9 - 0.0
30/07:08pm 21.3 20.2 6.9 39 7.5 WNW 2 6 1 3 1019.8 - 0.0
30/07:00pm 21.4 20.4 7.4 40 7.4 SE 2 6 1 3 1019.8 1019.2 0.0
30/06:30pm 23.3 21.1 5.2 31 9.3 SSE 6 7 3 4 1019.6 - 0.0
30/06:00pm 24.4 22.1 4.7 28 10.0 S 6 7 3 4 1019.5 1018.9 0.0
30/05:30pm 26.0 22.9 3.6 23 11.3 S 9 11 5 6 1019.3 - 0.0
30/05:00pm 26.8 22.4 2.9 21 12.0 S 15 19 8 10 1019.1 1018.5 0.0
30/04:30pm 27.1 23.9 3.1 21 12.1 SSW 9 17 5 9 1019.0 - 0.0
30/04:00pm 27.4 23.4 3.0 20 12.3 S 13 20 7 11 1018.9 1018.3 0.0
30/03:30pm 27.8 24.0 3.8 21 12.3 S 13 20 7 11 1019.0 - 0.0
30/03:00pm 27.4 23.1 3.1 21 12.3 SW 15 26 8 14 1019.1 1018.5 0.0
30/02:30pm 27.3 23.4 3.4 21 12.1 S 13 24 7 13 1019.3 - 0.0
30/02:00pm 27.4 24.2 3.2 21 12.2 WSW 9 22 5 12 1019.4 1018.8 0.0
30/01:30pm 27.4 23.8 3.0 20 12.3 SSW 11 19 6 10 1019.7 - 0.0
30/01:00pm 27.4 23.8 2.8 20 12.3 W 11 19 6 10 1020.1 1019.5 0.0
30/12:30pm 26.7 23.5 3.3 22 11.8 SSW 9 22 5 12 1020.8 - 0.0
30/12:00pm 26.8 24.1 3.9 23 11.7 S 7 13 4 7 1021.3 1020.7 0.0
30/11:30am 25.5 23.0 4.8 26 10.7 SSE 7 13 4 7 1021.8 - 0.0
30/11:00am 23.9 21.6 5.9 31 9.3 SE 7 15 4 8 1022.1 1021.5 0.0
30/10:30am 22.2 20.1 6.7 36 8.1 SE 7 13 4 7 1022.5 - 0.0
30/10:00am 20.1 18.1 6.9 42 6.8 S 7 13 4 7 1023.0 1022.4 0.0
30/09:30am 18.6 16.7 7.5 48 5.8 S 7 13 4 7 1023.2 - 0.0
30/09:00am 17.0 15.3 7.6 54 4.8 SSW 6 9 3 5 1023.1 1022.5 0.0
30/08:30am 15.1 13.6 7.0 58 4.1 S 4 6 2 3 1023.0 - 0.0
30/08:00am 13.4 11.9 6.8 64 3.2 S 4 6 2 3 1022.8 1022.3 0.0
30/07:30am 11.6 10.0 6.4 70 2.5 SSW 4 6 2 3 1022.5 - 0.0
30/07:00am 10.9 9.3 6.2 73 2.2 WSW 4 6 2 3 1022.2 1021.7 0.0
30/06:30am 10.7 9.1 6.3 74 2.1 SW 4 6 2 3 1022.0 - 0.0
30/06:00am 11.0 9.5 6.6 74 2.1 WSW 4 6 2 3 1021.6 1021.0 0.0
30/05:30am 11.3 9.7 6.5 72 2.3 WSW 4 4 2 2 1021.5 - 0.0
30/05:00am 10.9 9.1 7.0 77 1.9 SW 6 6 3 3 1021.2 1020.6 0.0
30/04:30am 11.8 10.4 7.4 74 2.2 W 4 6 2 3 1020.9 - 0.0
30/04:00am 12.1 10.7 7.1 71 2.5 SW 4 4 2 2 1020.9 1020.3 0.0
30/03:30am 12.5 11.0 7.0 69 2.7 W 4 6 2 3 1021.0 - 0.0
30/03:00am 13.2 11.7 6.7 64 3.2 SW 4 4 2 2 1021.0 1020.4 0.0
30/02:30am 13.8 12.1 5.9 59 3.8 SSW 4 7 2 4 1021.0 - 0.0
30/02:00am 15.0 13.8 6.6 57 4.2 SSE 2 6 1 3 1021.2 1020.6 0.0
30/01:30am 15.8 13.6 5.2 49 5.2 S 6 7 3 4 1021.3 - 0.0
30/01:00am 15.1 12.7 5.4 52 4.7 SSE 7 19 4 10 1021.3 1020.7 0.0
30/12:30am 17.0 14.5 4.9 44 5.9 NE 7 9 4 5 1021.0 - 0.0
30/12:00am 17.4 14.6 5.3 45 5.9 NE 9 11 5 6 1021.2 1020.6 0.0
 
Date/Time
WST
Temp
°C
App
Temp
°C
Dew
Point
Rel
Hum
%
Delta-T
°C
Wind Press
QNH
hPa
Press
MSL
hPa
Rain
since 9 am
mm
Dir
 
Spd
km/h
Gust
km/h
Spd
kts
Gust
kts
29/11:30pm 16.4 14.7 5.8 49 5.2 NE 4 6 2 3 1021.4 - 0.0
29/11:00pm 17.8 15.1 5.4 44 6.1 NE 9 13 5 7 1021.6 1021.0 0.0
29/10:30pm 18.4 15.6 5.2 42 6.5 NE 9 11 5 6 1021.9 - 0.0
29/10:00pm 17.5 15.3 6.3 47 5.6 NE 7 9 4 5 1022.0 1021.4 0.0
29/09:30pm 18.6 15.9 5.4 42 6.6 NE 9 11 5 6 1021.9 - 0.0
29/09:00pm 17.8 16.4 7.1 49 5.5 NE 4 6 2 3 1022.1 1021.5 0.0
29/08:30pm 18.3 16.9 7.4 49 5.6 NE 4 4 2 2 1022.0 - 0.0
29/08:00pm 20.0 18.9 7.0 43 6.7 E 2 4 1 2 1021.9 1021.3 0.0
29/07:30pm 21.1 18.8 5.5 36 7.9 ENE 7 7 4 4 1021.6 - 0.0
29/07:00pm 21.0 19.5 6.6 39 7.4 E 4 6 2 3 1021.5 1020.9 0.0
29/06:30pm 22.9 20.7 5.2 31 9.0 SE 6 9 3 5 1021.2 - 0.0
29/06:00pm 24.0 21.5 3.7 26 10.1 SE 6 7 3 4 1021.0 1020.4 0.0
29/05:30pm 25.7 22.1 2.9 22 11.4 SE 11 15 6 8 1020.8 - 0.0
29/05:00pm 26.5 23.2 2.7 21 11.9 ESE 9 13 5 7 1020.6 1020.0 0.0
29/04:30pm 26.7 24.0 2.4 20 12.1 ESE 6 15 3 8 1020.3 - 0.0
29/04:00pm 26.7 23.0 2.2 20 12.1 SE 11 17 6 9 1020.2 1019.7 0.0
29/03:30pm 27.0 23.3 2.5 20 12.2 SSE 11 19 6 10 1020.1 - 0.0
29/03:00pm 26.7 22.2 2.1 20 12.1 ESE 15 20 8 11 1020.1 1019.5 0.0
29/02:30pm 27.1 23.0 2.4 20 12.3 ESE 13 19 7 10 1020.2 - 0.0
29/02:00pm 26.7 22.2 2.1 20 12.1 E 15 24 8 13 1020.3 1019.8 0.0
29/01:30pm 26.4 21.9 2.1 20 12.0 SSE 15 26 8 14 1020.4 - 0.0
29/01:00pm 26.2 21.3 2.0 20 11.9 SE 17 24 9 13 1020.8 1020.2 0.0
29/12:30pm 25.7 20.7 1.6 20 11.7 E 17 30 9 16 1021.3 - 0.0
29/12:00pm 25.3 20.4 1.9 21 11.4 ESE 17 24 9 13 1021.8 1021.2 0.0

Other Formats:

Comma delimited format used in spreadsheet applications
http://www.bom.gov.au/fwo/IDW60801/IDW60801.99737.axf

JavaScript Object Notation format (JSON) in row-major order
http://www.bom.gov.au/fwo/IDW60801/IDW60801.99737.json